K7BM

UTC

Cottonwood Pass

Buena Vista, Colorado, United States

METAR - Current

K7BM 230815Z AUTO 31006G14KT 10SM SCT025 BKN033 OVC041 M06/M13 A2996 RMK AO2

Observed

Mar 23 08:15 UTC

Flight Rules

VFR

Wind

310° at 6 KTS
Gusting to 14 KTS

Visibility

10 SM

Clouds

  • Scattered at 2,500 ft AGL
  • Broken at 3,300 ft AGL
  • Overcast at 4,100 ft AGL

Ceiling

Broken at 3,300 ft AGL

Temperature

-6°C=21°F

Dew Point

-13°C=9°F

Humidity

58%

Altimeter

29.96 Hg

Pressure

1015.0 hPa

METAR - Previous

K7BM 230755Z AUTO 28009G18KT 10SM SCT023 BKN031 OVC038 M06/M13 A2995 RMK AO2

Observed

Mar 23 07:55 UTC

Flight Rules

VFR

Wind

280° at 9 KTS
Gusting to 18 KTS

Visibility

10 SM

Clouds

  • Scattered at 2,300 ft AGL
  • Broken at 3,100 ft AGL
  • Overcast at 3,800 ft AGL

Ceiling

Broken at 3,100 ft AGL

Temperature

-6°C=21°F

Dew Point

-13°C=9°F

Humidity

58%

Altimeter

29.95 Hg

Pressure

1014.0 hPa